Time;durP1;ratioP1;P1;durP2;ratioP2;P2;SDS_P1;SDS_P2;PMS_P1;PMS_P2;Temp;Humidity;BMP_temperature;BMP_pressure;BME280_temperature;BME280_humidity;BME280_pressure;Samples;Min_cycle;Max_cycle;Signal;HPM_P1;HPM_P2
2021/07/26 00:10:03;;;;;;;18.23;11.88;;;;;;;21.23;94.57;100199.41;713773;1202;115835;-75
2021/07/26 00:25:07;;;;;;;18.90;11.93;;;;;;;21.02;95.95;100174.61;713855;1202;114315;-76
2021/07/26 00:40:09;;;;;;;14.13;10.70;;;;;;;20.87;96.96;100172.17;713780;1202;115216;-75
2021/07/26 00:55:12;;;;;;;15.97;11.03;;;;;;;20.94;97.15;100175.66;713841;1180;115342;-75
2021/07/26 01:10:14;;;;;;;15.78;11.75;;;;;;;20.93;98.01;100173.18;713793;1200;114754;-74
2021/07/26 01:25:17;;;;;;;17.27;11.20;;;;;;;21.07;98.64;100160.67;713704;1200;115683;-74
2021/07/26 01:40:19;;;;;;;14.00;10.87;;;;;;;21.06;99.45;100167.02;713792;1201;115303;-76
2021/07/26 01:55:21;;;;;;;15.13;10.90;;;;;;;21.08;100.00;100163.13;713584;1178;114567;-76
2021/07/26 02:10:24;;;;;;;17.43;12.15;;;;;;;21.11;100.00;100177.89;713956;1202;115151;-74
2021/07/26 02:25:26;;;;;;;16.33;11.57;;;;;;;20.99;100.00;100191.03;713871;1202;115080;-76
2021/07/26 02:40:28;;;;;;;14.00;10.97;;;;;;;21.07;100.00;100182.00;713707;1202;115381;-75
2021/07/26 02:55:30;;;;;;;13.73;10.08;;;;;;;21.25;100.00;100184.84;713941;1202;116418;-75
2021/07/26 03:10:32;;;;;;;14.40;10.07;;;;;;;21.20;100.00;100181.98;714041;1205;116204;-77
2021/07/26 03:25:39;;;;;;;14.90;11.70;;;;;;;21.25;100.00;100190.18;714006;1180;116001;-76
2021/07/26 03:40:42;;;;;;;17.45;11.63;;;;;;;21.40;100.00;100192.60;714341;1200;114648;-74
2021/07/26 03:55:44;;;;;;;17.63;10.93;;;;;;;21.45;100.00;100198.13;714076;1202;115854;-76
2021/07/26 04:10:50;;;;;;;15.73;11.50;;;;;;;21.54;100.00;100195.30;714233;1200;114560;-76
2021/07/26 04:25:52;;;;;;;17.40;11.98;;;;;;;21.50;100.00;100184.18;714169;1201;114904;-75
2021/07/26 04:40:54;;;;;;;14.50;11.25;;;;;;;21.40;100.00;100155.25;713837;1200;115885;-75
2021/07/26 04:55:57;;;;;;;15.95;11.28;;;;;;;21.36;100.00;100161.23;713854;1205;114759;-75
2021/07/26 05:11:00;;;;;;;16.25;12.35;;;;;;;21.38;100.00;100159.16;716792;1166;115890;-75
2021/07/26 05:26:02;;;;;;;16.90;11.88;;;;;;;21.33;100.00;100132.31;714180;1200;114973;-76
2021/07/26 05:41:07;;;;;;;11.95;10.18;;;;;;;21.45;100.00;100120.76;714171;1204;115798;-76
2021/07/26 05:56:12;;;;;;;13.70;10.93;;;;;;;21.77;100.00;100101.35;714418;1202;115841;-76
2021/07/26 06:11:14;;;;;;;14.43;10.40;;;;;;;21.93;100.00;100106.20;714226;1200;115121;-75
2021/07/26 06:26:16;;;;;;;14.47;11.23;;;;;;;22.20;100.00;100127.39;714173;1203;114757;-77
2021/07/26 06:41:19;;;;;;;16.08;11.63;;;;;;;22.51;100.00;100109.72;714596;1200;115211;-75
2021/07/26 06:56:21;;;;;;;21.07;17.53;;;;;;;22.76;100.00;100114.23;714335;1203;115372;-76
2021/07/26 07:11:24;;;;;;;26.07;20.17;;;;;;;23.33;100.00;100114.08;714359;1200;115312;-77
2021/07/26 07:26:27;;;;;;;15.48;12.43;;;;;;;24.80;99.46;100110.36;714425;1200;115161;-79
2021/07/26 07:41:30;;;;;;;13.93;10.75;;;;;;;25.98;93.16;100103.89;715547;1200;115798;-76
2021/07/26 07:56:33;;;;;;;14.80;9.18;;;;;;;27.46;86.32;100084.83;714458;1203;114388;-77
2021/07/26 08:11:35;;;;;;;12.20;8.60;;;;;;;28.34;81.43;100084.58;714631;1200;114428;-76
2021/07/26 08:26:38;;;;;;;11.03;7.78;;;;;;;28.95;78.01;100087.95;714226;1200;114078;-81
2021/07/26 08:41:43;;;;;;;13.33;8.43;;;;;;;29.02;77.15;100073.14;714477;1200;115110;-80
2021/07/26 08:56:45;;;;;;;10.30;8.50;;;;;;;29.64;74.32;100084.17;714339;1200;114261;-78
2021/07/26 09:11:47;;;;;;;12.28;7.60;;;;;;;29.39;73.10;100082.20;714282;1201;115702;-76
2021/07/26 09:26:50;;;;;;;9.80;8.53;;;;;;;28.84;73.63;100081.70;714183;1200;114394;-81
2021/07/26 09:41:55;;;;;;;13.65;9.53;;;;;;;29.74;73.94;100066.35;714301;1203;115208;-78
2021/07/26 09:57:23;;;;;;;9.48;8.18;;;;;;;30.12;71.72;100077.75;714796;1200;114933;-81
2021/07/26 10:12:26;;;;;;;14.50;9.00;;;;;;;30.79;70.84;100077.66;718828;1200;115501;-81
2021/07/26 10:27:33;;;;;;;11.50;8.50;;;;;;;31.09;70.58;100073.25;715318;1176;114308;-79
2021/07/26 10:42:35;;;;;;;10.83;8.37;;;;;;;31.55;68.31;100077.63;714166;1200;114096;-80
2021/07/26 10:57:44;;;;;;;11.33;8.00;;;;;;;32.26;66.48;100068.17;715561;1200;114146;-80
2021/07/26 11:12:54;;;;;;;10.50;8.15;;;;;;;31.33;66.65;100067.98;714212;1200;114903;-78
2021/07/26 11:27:56;;;;;;;8.88;7.60;;;;;;;31.02;66.77;100071.62;718217;1200;115617;-81
2021/07/26 11:42:58;;;;;;;9.78;7.03;;;;;;;30.56;66.37;100079.88;716104;1200;114503;-80
2021/07/26 11:58:07;;;;;;;9.00;7.48;;;;;;;30.72;66.41;100072.53;726048;1203;115132;-76
2021/07/26 12:13:12;;;;;;;18.80;8.40;;;;;;;30.30;67.00;100070.96;714667;1200;114374;-77
2021/07/26 12:28:21;;;;;;;7.93;6.98;;;;;;;29.86;67.13;100059.61;715155;1174;115768;-77
2021/07/26 12:43:26;;;;;;;10.53;7.07;;;;;;;29.05;69.22;100075.30;714045;1203;114546;-77
2021/07/26 12:58:30;;;;;;;9.93;7.90;;;;;;;29.26;70.61;100077.27;714581;1200;114644;-77
2021/07/26 13:13:33;;;;;;;8.45;6.95;;;;;;;29.20;71.50;100073.75;715316;1203;113787;-78
2021/07/26 13:28:36;;;;;;;12.40;7.58;;;;;;;29.01;70.34;100066.11;714222;1200;113801;-77
2021/07/26 13:43:38;;;;;;;7.57;5.90;;;;;;;28.86;70.57;100071.44;714464;1205;114386;-77
2021/07/26 13:58:40;;;;;;;12.95;6.40;;;;;;;28.30;70.89;100075.38;714232;1200;113794;-77
2021/07/26 14:13:42;;;;;;;9.28;6.88;;;;;;;28.17;72.62;100065.04;714181;1200;115341;-70
2021/07/26 14:28:48;;;;;;;14.08;8.30;;;;;;;27.66;74.90;100073.44;714074;1202;113970;-76
2021/07/26 14:43:52;;;;;;;17.57;8.53;;;;;;;27.08;77.25;100076.53;714023;1180;114077;-78
2021/07/26 14:58:54;;;;;;;12.45;9.25;;;;;;;26.21;82.63;100070.69;714270;1201;114037;-75
2021/07/26 15:13:56;;;;;;;12.55;9.25;;;;;;;25.83;87.34;100064.14;714683;1200;114352;-80
2021/07/26 15:28:59;;;;;;;12.47;9.53;;;;;;;25.81;88.98;100060.88;714279;1200;115259;-78
2021/07/26 15:44:01;;;;;;;14.80;8.53;;;;;;;25.85;89.83;100056.64;714282;1203;114498;-78
2021/07/26 15:59:03;;;;;;;12.80;7.13;;;;;;;25.80;89.28;100049.32;714187;1200;114317;-78
2021/07/26 16:14:06;;;;;;;13.23;8.23;;;;;;;25.82;90.06;100044.50;714365;1200;115080;-78
2021/07/26 16:29:09;;;;;;;15.33;9.87;;;;;;;25.64;90.74;100050.09;717466;1198;114085;-78
2021/07/26 16:44:11;;;;;;;17.60;11.80;;;;;;;25.67;90.93;100028.11;714276;1178;113833;-80
2021/07/26 16:59:13;;;;;;;16.00;10.98;;;;;;;25.71;91.22;100024.72;714208;1189;114123;-78
2021/07/26 17:14:15;;;;;;;15.30;12.80;;;;;;;25.61;90.98;100029.91;714242;1177;114185;-77
2021/07/26 17:29:18;;;;;;;13.27;9.20;;;;;;;25.63;91.69;100029.66;714531;1205;115504;-78
2021/07/26 17:44:20;;;;;;;11.23;8.00;;;;;;;25.44;92.66;100034.42;714291;1206;114478;-75
2021/07/26 17:59:25;;;;;;;13.10;9.18;;;;;;;25.39;93.29;100027.08;714433;1176;114028;-75
2021/07/26 18:14:28;;;;;;;24.50;13.33;;;;;;;25.17;94.64;100016.19;714242;1202;115334;-76
2021/07/26 18:29:30;;;;;;;15.08;9.48;;;;;;;24.91;96.84;100026.39;714349;1200;114271;-77
2021/07/26 18:44:38;;;;;;;26.33;16.38;;;;;;;24.61;98.56;100008.55;714199;1200;116937;-77
2021/07/26 18:59:40;;;;;;;35.90;22.93;;;;;;;24.34;100.00;100027.80;715041;1200;114278;-78
2021/07/26 19:14:42;;;;;;;28.60;19.45;;;;;;;24.01;100.00;100023.00;714929;1200;114675;-78
2021/07/26 19:29:45;;;;;;;18.87;14.17;;;;;;;23.83;100.00;100013.14;714918;1200;115848;-77
2021/07/26 19:44:47;;;;;;;93.65;45.23;;;;;;;23.70;100.00;100008.80;714722;1200;115060;-77
2021/07/26 19:59:49;;;;;;;24.63;16.00;;;;;;;23.39;100.00;100021.39;714282;1202;114361;-75
2021/07/26 20:14:51;;;;;;;23.38;17.25;;;;;;;23.18;100.00;100011.99;714553;1202;116000;-75
2021/07/26 20:29:53;;;;;;;57.43;38.45;;;;;;;23.24;100.00;100013.75;714163;1180;114011;-75
2021/07/26 20:44:55;;;;;;;17.60;12.93;;;;;;;23.03;100.00;100015.84;714283;1177;114676;-75
2021/07/26 20:59:58;;;;;;;19.47;13.30;;;;;;;22.86;100.00;100010.27;714098;1177;113585;-74
2021/07/26 21:15:04;;;;;;;21.80;12.43;;;;;;;22.75;100.00;100038.57;713926;1200;114244;-74
2021/07/26 21:30:15;;;;;;;23.55;13.78;;;;;;;22.80;100.00;100040.56;714036;1184;114474;-76
2021/07/26 21:45:17;;;;;;;25.63;17.68;;;;;;;22.81;100.00;100033.38;714108;1205;115668;-74
2021/07/26 22:00:20;;;;;;;22.20;14.80;;;;;;;22.66;100.00;100041.73;714202;1200;114491;-74
2021/07/26 22:15:22;;;;;;;21.70;15.50;;;;;;;22.63;100.00;100029.63;714260;1200;115252;-74
2021/07/26 22:30:25;;;;;;;18.35;13.20;;;;;;;22.57;100.00;100033.20;714204;1178;114989;-74
2021/07/26 22:45:27;;;;;;;22.73;15.40;;;;;;;22.38;100.00;100033.17;714719;1177;114630;-76
2021/07/26 23:00:29;;;;;;;22.80;15.75;;;;;;;22.22;100.00;100031.00;714513;1202;116100;-75
2021/07/26 23:15:31;;;;;;;19.38;15.20;;;;;;;22.21;100.00;100019.52;714112;1202;115682;-74
2021/07/26 23:30:33;;;;;;;19.05;14.68;;;;;;;22.16;100.00;100005.99;714362;1203;115205;-75
2021/07/26 23:45:35;;;;;;;21.93;15.13;;;;;;;21.93;100.00;99995.89;713765;1202;115837;-75
